createdAt,value
2023-03-05T00:00:56.636Z,9.26
2023-03-05T00:03:30.276Z,9.22
2023-03-05T00:06:00.777Z,9.15
2023-03-05T00:08:31.894Z,9.13
2023-03-05T00:11:03.688Z,9.15
2023-03-05T00:13:35.640Z,9.15
2023-03-05T00:16:07.872Z,9.10
2023-03-05T00:18:38.370Z,9.07
2023-03-05T00:21:19.914Z,9.05
2023-03-05T00:23:50.991Z,9.01
2023-03-05T00:26:22.316Z,8.92
2023-03-05T00:28:52.545Z,8.85
2023-03-05T00:31:24.853Z,8.80
2023-03-05T00:33:56.354Z,8.74
2023-03-05T00:36:28.010Z,8.74
2023-03-05T00:38:58.350Z,8.77
2023-03-05T00:41:29.228Z,8.79
2023-03-05T00:44:00.130Z,8.80
2023-03-05T00:46:30.629Z,8.76
2023-03-05T00:49:03.845Z,8.75
2023-03-05T00:51:34.389Z,8.75
2023-03-05T00:54:05.540Z,8.76
2023-03-05T00:56:37.025Z,8.77
2023-03-05T00:59:07.985Z,8.82
2023-03-05T01:01:38.705Z,8.89
2023-03-05T01:04:09.387Z,8.94
2023-03-05T01:06:42.569Z,8.98
2023-03-05T01:09:12.809Z,9.00
2023-03-05T01:11:43.196Z,9.02
2023-03-05T01:14:13.603Z,9.03
2023-03-05T01:16:43.925Z,9.05
2023-03-05T01:19:14.922Z,9.12
2023-03-05T01:21:45.435Z,9.21
2023-03-05T01:24:15.739Z,9.29
2023-03-05T01:26:46.551Z,9.38
2023-03-05T01:29:16.780Z,9.44
2023-03-05T01:31:47.096Z,9.49
2023-03-05T01:34:17.919Z,9.51
2023-03-05T01:36:49.842Z,9.53
2023-03-05T01:39:20.314Z,9.53
2023-03-05T01:41:50.807Z,9.52
2023-03-05T01:44:25.603Z,9.53
2023-03-05T01:46:55.924Z,9.54
2023-03-05T01:49:27.715Z,9.53
2023-03-05T01:52:02.051Z,9.51
2023-03-05T01:54:35.083Z,9.51
2023-03-05T01:57:10.947Z,9.52
2023-03-05T01:59:43.096Z,9.53
2023-03-05T02:02:14.948Z,9.56
2023-03-05T02:04:49.442Z,9.58
2023-03-05T02:07:20.488Z,9.60
2023-03-05T02:09:50.882Z,9.62
2023-03-05T02:12:21.201Z,9.64
2023-03-05T02:14:58.829Z,9.66
2023-03-05T02:17:30.026Z,9.69
2023-03-05T02:20:07.287Z,9.72
2023-03-05T02:22:36.123Z,9.74
2023-03-05T02:25:16.152Z,9.72
2023-03-05T02:27:53.434Z,9.71
2023-03-05T02:30:24.208Z,9.71
2023-03-05T02:32:54.450Z,9.70
2023-03-05T02:35:24.970Z,9.67
2023-03-05T02:37:55.183Z,9.66
2023-03-05T02:40:25.931Z,9.68
2023-03-05T02:42:56.124Z,9.70
2023-03-05T02:45:26.363Z,9.73
2023-03-05T02:47:56.594Z,9.76
2023-03-05T02:50:28.886Z,9.78
2023-03-05T02:52:59.441Z,9.83
2023-03-05T02:55:29.767Z,9.86
2023-03-05T02:58:00.179Z,9.88
2023-03-05T03:00:31.274Z,9.88
2023-03-05T03:03:01.608Z,9.86
2023-03-05T03:05:32.249Z,9.85
2023-03-05T03:08:03.091Z,9.84
2023-03-05T03:10:33.671Z,9.81
2023-03-05T03:13:04.597Z,9.76
2023-03-05T03:15:34.844Z,9.73
2023-03-05T03:18:05.776Z,9.71
2023-03-05T03:20:39.315Z,9.72
2023-03-05T03:23:09.619Z,9.74
2023-03-05T03:25:39.910Z,9.77
2023-03-05T03:28:10.058Z,9.82
2023-03-05T03:30:41.175Z,9.87
2023-03-05T03:33:11.741Z,9.93
2023-03-05T03:35:42.137Z,9.96
2023-03-05T03:38:13.561Z,9.98
2023-03-05T03:40:43.869Z,9.97
2023-03-05T03:43:14.256Z,9.96
2023-03-05T03:45:45.207Z,9.94
2023-03-05T03:48:15.594Z,9.90
2023-03-05T03:50:45.856Z,9.88
2023-03-05T03:53:17.295Z,9.86
2023-03-05T03:55:47.895Z,9.84
2023-03-05T03:58:18.723Z,9.83
2023-03-05T04:00:49.681Z,9.82
2023-03-05T04:03:20.279Z,9.81
2023-03-05T04:05:51.062Z,9.83
2023-03-05T04:08:22.082Z,9.85
2023-03-05T04:10:52.573Z,9.88
2023-03-05T04:13:22.844Z,9.92
2023-03-05T04:15:54.294Z,9.97
2023-03-05T04:18:25.517Z,10.03
2023-03-05T04:20:56.532Z,10.06
2023-03-05T04:23:27.151Z,10.09
2023-03-05T04:25:58.450Z,10.11
2023-03-05T04:28:28.762Z,10.12
2023-03-05T04:30:59.241Z,10.12
2023-03-05T04:33:29.995Z,10.10
2023-03-05T04:36:01.374Z,10.08
2023-03-05T04:38:31.646Z,10.05
2023-03-05T04:41:01.918Z,10.03
2023-03-05T04:43:32.370Z,10.04
2023-03-05T04:46:03.085Z,10.05
2023-03-05T04:48:34.434Z,10.07
2023-03-05T04:51:05.279Z,10.07
2023-03-05T04:53:35.777Z,10.09
2023-03-05T04:56:07.343Z,10.13
2023-03-05T04:58:38.030Z,10.13
2023-03-05T05:01:09.302Z,10.12
2023-03-05T05:03:40.190Z,10.14
2023-03-05T05:06:11.018Z,10.13
2023-03-05T05:08:41.362Z,10.12
2023-03-05T05:11:14.934Z,10.11
2023-03-05T05:13:45.190Z,10.09
2023-03-05T05:16:16.087Z,10.08
2023-03-05T05:18:46.654Z,10.06
2023-03-05T05:21:18.305Z,10.05
2023-03-05T05:23:48.703Z,10.06
2023-03-05T05:26:18.898Z,10.08
2023-03-05T05:28:49.225Z,10.11
2023-03-05T05:31:20.230Z,10.16
2023-03-05T05:33:50.734Z,10.20
2023-03-05T05:36:22.505Z,10.26
2023-03-05T05:38:52.849Z,10.29
2023-03-05T05:41:23.566Z,10.30
2023-03-05T05:43:54.320Z,10.28
2023-03-05T05:46:25.826Z,10.27
2023-03-05T05:48:56.409Z,10.29
2023-03-05T05:51:26.816Z,10.32
2023-03-05T05:53:57.060Z,10.34
2023-03-05T05:56:27.451Z,10.35
2023-03-05T05:58:57.659Z,10.34
2023-03-05T06:01:29.769Z,10.34
2023-03-05T06:04:00.583Z,10.32
2023-03-05T06:06:31.507Z,10.33
2023-03-05T06:09:02.192Z,10.37
2023-03-05T06:11:33.809Z,10.41
2023-03-05T06:14:04.081Z,10.43
2023-03-05T06:16:35.090Z,10.45
2023-03-05T06:19:05.530Z,10.46
2023-03-05T06:21:36.017Z,10.47
2023-03-05T06:24:07.864Z,10.50
2023-03-05T06:26:38.365Z,10.53
2023-03-05T06:29:08.988Z,10.57
2023-03-05T06:31:40.693Z,10.62
2023-03-05T06:34:12.297Z,10.68
2023-03-05T06:36:43.416Z,10.73
2023-03-05T06:39:14.064Z,10.82
2023-03-05T06:41:45.235Z,10.91
2023-03-05T06:44:15.736Z,11.06
2023-03-05T06:46:46.081Z,11.22
2023-03-05T06:49:17.537Z,11.40
2023-03-05T06:51:48.142Z,11.56
2023-03-05T06:54:19.134Z,11.69
2023-03-05T06:56:49.335Z,11.81
2023-03-05T06:59:19.592Z,11.88
2023-03-05T07:01:50.358Z,11.89
2023-03-05T07:04:20.625Z,11.89
2023-03-05T07:06:51.121Z,11.89
2023-03-05T07:09:21.494Z,11.88
2023-03-05T07:11:51.832Z,11.86
2023-03-05T07:14:22.153Z,11.82
2023-03-05T07:16:52.420Z,11.78
2023-03-05T07:19:22.734Z,11.73
2023-03-05T07:21:53.124Z,11.74
2023-03-05T07:24:24.507Z,11.76
2023-03-05T07:26:54.956Z,11.76
2023-03-05T07:29:25.378Z,11.76
2023-03-05T07:31:56.234Z,11.77
2023-03-05T07:34:27.358Z,11.77
2023-03-05T07:36:57.980Z,11.76
2023-03-05T07:39:28.811Z,11.74
2023-03-05T07:41:59.374Z,11.72
2023-03-05T07:44:29.631Z,11.69
2023-03-05T07:47:00.685Z,11.67
2023-03-05T07:49:31.438Z,11.67
2023-03-05T07:52:01.806Z,11.72
2023-03-05T07:54:32.141Z,11.79
2023-03-05T07:57:02.416Z,11.89
2023-03-05T07:59:32.692Z,12.00
2023-03-05T08:02:03.055Z,12.11
2023-03-05T08:04:33.389Z,12.22
2023-03-05T08:07:04.143Z,12.30
2023-03-05T08:09:35.088Z,12.31
2023-03-05T08:12:06.528Z,12.30
2023-03-05T08:14:36.990Z,12.30
2023-03-05T08:17:08.851Z,12.31
2023-03-05T08:19:39.215Z,12.32
2023-03-05T08:22:09.528Z,12.35
2023-03-05T08:24:39.965Z,12.39
2023-03-05T08:27:10.710Z,12.40
2023-03-05T08:29:41.370Z,12.41
2023-03-05T08:32:12.294Z,12.38
2023-03-05T08:34:42.680Z,12.35
2023-03-05T08:37:13.264Z,12.31
2023-03-05T08:39:43.749Z,12.27
2023-03-05T08:42:14.392Z,12.20
2023-03-05T08:44:44.772Z,12.10
2023-03-05T08:47:15.149Z,12.00
2023-03-05T08:49:45.345Z,11.94
2023-03-05T08:52:15.793Z,11.86
2023-03-05T08:54:46.174Z,11.81
2023-03-05T08:57:16.471Z,11.79
2023-03-05T08:59:46.889Z,11.80
2023-03-05T09:02:17.541Z,11.80
2023-03-05T09:04:48.030Z,11.81
2023-03-05T09:07:18.359Z,11.81
2023-03-05T09:09:48.790Z,11.82
2023-03-05T09:12:19.231Z,11.86
2023-03-05T09:14:49.635Z,11.87
2023-03-05T09:17:20.034Z,11.90
2023-03-05T09:19:50.444Z,11.90
2023-03-05T09:22:20.775Z,11.91
2023-03-05T09:24:51.395Z,11.88
2023-03-05T09:27:21.780Z,11.86
2023-03-05T09:29:52.870Z,11.82
2023-03-05T09:32:23.240Z,11.78
2023-03-05T09:34:53.620Z,11.70
2023-03-05T09:37:24.018Z,11.65
2023-03-05T09:39:54.346Z,11.60
2023-03-05T09:42:46.801Z,11.57
2023-03-05T09:45:23.424Z,11.52
2023-03-05T09:47:59.108Z,11.47
2023-03-05T09:50:48.178Z,11.42
2023-03-05T09:53:24.361Z,11.36
2023-03-05T09:55:55.865Z,11.32
2023-03-05T09:58:34.723Z,11.24
2023-03-05T10:01:07.242Z,11.17
2023-03-05T10:03:50.618Z,11.13
2023-03-05T10:06:25.423Z,11.12
2023-03-05T10:08:58.802Z,11.13
2023-03-05T10:11:43.713Z,11.14
2023-03-05T10:14:16.589Z,11.19
2023-03-05T10:17:16.371Z,11.25
2023-03-05T10:20:12.906Z,11.35
2023-03-05T10:22:57.361Z,11.41
2023-03-05T10:25:39.251Z,11.46
2023-03-05T10:28:17.575Z,11.49
2023-03-05T10:31:07.542Z,11.55
2023-03-05T10:33:44.314Z,11.62
2023-03-05T10:36:31.908Z,11.69
2023-03-05T10:39:42.583Z,11.64
2023-03-05T10:42:21.624Z,11.66
2023-03-05T10:44:55.586Z,11.69
2023-03-05T10:47:28.274Z,11.73
2023-03-05T10:50:00.506Z,11.81
2023-03-05T10:52:35.983Z,11.91
2023-03-05T10:55:16.439Z,11.98
2023-03-05T10:57:47.563Z,12.07
2023-03-05T11:00:23.291Z,12.14
2023-03-05T11:03:00.070Z,12.17
2023-03-05T11:05:37.793Z,12.20
2023-03-05T11:08:24.564Z,12.20
2023-03-05T11:11:16.760Z,12.25
2023-03-05T11:13:55.365Z,12.36
2023-03-05T11:16:27.538Z,12.47
2023-03-05T11:19:19.242Z,12.57
2023-03-05T11:22:16.018Z,12.69
2023-03-05T11:24:47.380Z,12.83
2023-03-05T11:27:27.328Z,12.97
2023-03-05T11:29:58.113Z,13.13
2023-03-05T11:32:30.206Z,13.27
2023-03-05T11:35:00.414Z,13.40
2023-03-05T11:37:32.738Z,13.52
2023-03-05T11:40:22.197Z,13.59
2023-03-05T11:42:56.632Z,13.60
2023-03-05T11:45:27.716Z,13.57
2023-03-05T11:47:59.659Z,13.60
2023-03-05T11:50:31.635Z,13.65
2023-03-05T11:53:06.689Z,13.69
2023-03-05T11:55:41.557Z,13.73
2023-03-05T11:58:25.561Z,13.77
2023-03-05T12:00:56.185Z,13.81
2023-03-05T12:03:28.134Z,13.85
2023-03-05T12:06:01.300Z,13.87
2023-03-05T12:08:34.682Z,13.87
2023-03-05T12:11:10.284Z,13.86
2023-03-05T12:13:44.174Z,13.83
2023-03-05T12:16:20.882Z,13.81
2023-03-05T12:18:56.704Z,13.82
2023-03-05T12:21:33.779Z,13.85
2023-03-05T12:24:05.380Z,13.85
2023-03-05T12:27:07.321Z,13.85
2023-03-05T12:29:45.937Z,13.87
2023-03-05T12:33:03.137Z,13.89
2023-03-05T12:35:41.271Z,13.91
2023-03-05T12:38:31.869Z,13.93
2023-03-05T12:41:34.828Z,13.94
2023-03-05T12:44:24.010Z,13.95
2023-03-05T12:47:19.905Z,13.94
2023-03-05T12:49:50.198Z,13.89
2023-03-05T12:52:29.149Z,13.79
2023-03-05T12:55:20.766Z,13.75
2023-03-05T12:57:56.799Z,13.73
2023-03-05T13:00:33.513Z,13.70
2023-03-05T13:03:03.234Z,13.67
2023-03-05T13:05:48.006Z,13.62
2023-03-05T13:08:22.854Z,13.57
2023-03-05T13:10:54.695Z,13.52
2023-03-05T13:13:26.177Z,13.44
2023-03-05T13:15:56.759Z,13.32
2023-03-05T13:18:29.205Z,13.20
2023-03-05T13:21:08.590Z,13.13
2023-03-05T13:23:38.869Z,13.06
2023-03-05T13:26:15.647Z,12.99
2023-03-05T13:28:46.669Z,12.92
2023-03-05T13:31:19.282Z,12.88
2023-03-05T13:33:54.952Z,12.83
2023-03-05T13:36:27.422Z,12.78
2023-03-05T13:38:57.760Z,12.70
2023-03-05T13:41:29.397Z,12.66
2023-03-05T13:44:01.575Z,12.61
2023-03-05T13:46:34.106Z,12.57
2023-03-05T13:49:22.454Z,12.53
2023-03-05T13:51:54.411Z,12.50
2023-03-05T13:54:26.077Z,12.47
2023-03-05T13:56:58.515Z,12.44
2023-03-05T13:59:30.971Z,12.41
2023-03-05T14:02:02.195Z,12.36
2023-03-05T14:04:38.417Z,12.33
2023-03-05T14:07:26.708Z,12.30
2023-03-05T14:09:57.190Z,12.26
2023-03-05T14:12:31.411Z,12.19
2023-03-05T14:15:06.589Z,12.14
2023-03-05T14:17:42.532Z,12.10
2023-03-05T14:20:23.517Z,12.06
2023-03-05T14:22:56.614Z,12.02
2023-03-05T14:25:37.625Z,11.97
2023-03-05T14:28:27.848Z,11.88
2023-03-05T14:30:59.002Z,11.78
2023-03-05T14:33:31.287Z,11.72
2023-03-05T14:36:02.666Z,11.68
2023-03-05T14:38:35.036Z,11.64
2023-03-05T14:41:36.206Z,11.62
2023-03-05T14:44:14.010Z,11.57
2023-03-05T14:46:48.809Z,11.54
2023-03-05T14:49:19.285Z,11.51
2023-03-05T14:51:49.851Z,11.48
2023-03-05T14:54:26.054Z,11.43
2023-03-05T14:56:56.536Z,11.36
2023-03-05T14:59:27.154Z,11.26
2023-03-05T15:01:58.073Z,11.15
2023-03-05T15:04:28.715Z,11.06
2023-03-05T15:06:59.619Z,10.98
2023-03-05T15:09:30.150Z,10.90
2023-03-05T15:12:00.652Z,10.84
2023-03-05T15:14:31.133Z,10.81
2023-03-05T15:17:01.770Z,10.74
2023-03-05T15:19:32.022Z,10.67
2023-03-05T15:22:02.507Z,10.60
2023-03-05T15:24:32.814Z,10.54
2023-03-05T15:27:03.722Z,10.57
2023-03-05T15:29:34.166Z,10.62
2023-03-05T15:32:05.228Z,10.67
2023-03-05T15:34:35.964Z,10.73
2023-03-05T15:37:06.882Z,10.78
2023-03-05T15:39:37.226Z,10.79
2023-03-05T15:42:08.419Z,10.80
2023-03-05T15:44:42.228Z,10.81
2023-03-05T15:47:12.816Z,10.79
2023-03-05T15:49:43.431Z,10.78
2023-03-05T15:52:15.480Z,10.79
2023-03-05T15:54:46.339Z,10.78
2023-03-05T15:57:16.711Z,10.79
2023-03-05T15:59:47.008Z,10.82
2023-03-05T16:02:18.561Z,10.84
2023-03-05T16:04:49.269Z,10.88
2023-03-05T16:07:22.858Z,10.94
2023-03-05T16:09:55.062Z,10.99
2023-03-05T16:12:27.159Z,11.03
2023-03-05T16:14:57.667Z,11.07
2023-03-05T16:17:27.917Z,11.10
2023-03-05T16:19:59.248Z,11.12
2023-03-05T16:22:30.755Z,11.13
2023-03-05T16:25:01.299Z,11.13
2023-03-05T16:27:32.176Z,11.12
2023-03-05T16:30:03.087Z,11.11
2023-03-05T16:32:34.302Z,11.10
2023-03-05T16:35:05.860Z,11.08
2023-03-05T16:37:36.305Z,11.06
2023-03-05T16:40:09.258Z,11.04
2023-03-05T16:42:39.780Z,11.02
2023-03-05T16:45:12.962Z,11.00
2023-03-05T16:47:43.620Z,10.98
2023-03-05T16:50:15.266Z,10.99
2023-03-05T16:52:45.930Z,10.99
2023-03-05T16:55:16.918Z,11.01
2023-03-05T16:57:47.958Z,11.02
2023-03-05T17:00:24.549Z,11.05
2023-03-05T17:02:55.863Z,11.08
2023-03-05T17:05:28.017Z,11.10
2023-03-05T17:07:58.314Z,11.11
2023-03-05T17:10:28.612Z,11.12
2023-03-05T17:12:59.162Z,11.12
2023-03-05T17:15:29.438Z,11.11
2023-03-05T17:17:59.736Z,11.09
2023-03-05T17:20:30.116Z,11.07
2023-03-05T17:23:02.007Z,11.04
2023-03-05T17:25:32.327Z,11.00
2023-03-05T17:28:02.841Z,10.96
2023-03-05T17:30:36.255Z,10.93
2023-03-05T17:33:07.423Z,10.88
2023-03-05T17:35:37.983Z,10.86
2023-03-05T17:38:10.608Z,10.88
2023-03-05T17:40:41.057Z,10.89
2023-03-05T17:43:11.640Z,10.92
2023-03-05T17:45:42.270Z,10.95
2023-03-05T17:48:13.126Z,10.99
2023-03-05T17:50:44.724Z,11.02
2023-03-05T17:53:15.145Z,11.03
2023-03-05T17:55:45.541Z,11.02
2023-03-05T17:58:16.079Z,10.99
2023-03-05T18:00:47.057Z,10.97
2023-03-05T18:03:20.242Z,10.94
2023-03-05T18:05:50.713Z,10.91
2023-03-05T18:08:21.072Z,10.88
2023-03-05T18:10:51.627Z,10.86
2023-03-05T18:13:21.957Z,10.85
2023-03-05T18:15:52.812Z,10.83
2023-03-05T18:18:23.800Z,10.79
2023-03-05T18:20:54.548Z,10.72
2023-03-05T18:23:25.256Z,10.67
2023-03-05T18:25:55.961Z,10.64
2023-03-05T18:28:27.451Z,10.61
2023-03-05T18:30:58.099Z,10.61
2023-03-05T18:33:28.529Z,10.61
2023-03-05T18:35:59.232Z,10.64
2023-03-05T18:38:31.230Z,10.66
2023-03-05T18:41:05.230Z,10.68
2023-03-05T18:43:36.432Z,10.69
2023-03-05T18:46:08.486Z,10.69
2023-03-05T18:48:40.313Z,10.68
2023-03-05T18:51:16.723Z,10.65
2023-03-05T18:53:47.773Z,10.64
2023-03-05T18:56:18.356Z,10.62
2023-03-05T18:58:48.652Z,10.58
2023-03-05T19:01:19.702Z,10.52
2023-03-05T19:03:50.553Z,10.48
2023-03-05T19:06:21.509Z,10.48
2023-03-05T19:08:57.186Z,10.50
2023-03-05T19:11:28.016Z,10.53
2023-03-05T19:13:58.619Z,10.53
2023-03-05T19:16:36.481Z,10.48
2023-03-05T19:19:20.298Z,10.39
2023-03-05T19:21:53.398Z,10.35
2023-03-05T19:24:24.941Z,10.35
2023-03-05T19:26:56.565Z,10.37
2023-03-05T19:29:28.417Z,10.39
2023-03-05T19:31:59.063Z,10.43
2023-03-05T19:34:29.782Z,10.46
2023-03-05T19:37:00.499Z,10.46
2023-03-05T19:39:30.980Z,10.45
2023-03-05T19:42:01.362Z,10.44
2023-03-05T19:44:32.009Z,10.43
2023-03-05T19:47:02.797Z,10.41
2023-03-05T19:49:33.245Z,10.41
2023-03-05T19:52:04.063Z,10.42
2023-03-05T19:54:35.538Z,10.44
2023-03-05T19:57:06.589Z,10.48
2023-03-05T19:59:36.958Z,10.52
2023-03-05T20:02:08.258Z,10.57
2023-03-05T20:04:38.546Z,10.57
2023-03-05T20:07:10.158Z,10.58
2023-03-05T20:09:40.732Z,10.60
2023-03-05T20:12:11.273Z,10.60
2023-03-05T20:14:41.377Z,10.61
2023-03-05T20:17:12.094Z,10.61
2023-03-05T20:19:42.534Z,10.61
2023-03-05T20:22:13.338Z,10.59
2023-03-05T20:24:43.588Z,10.57
2023-03-05T20:27:14.031Z,10.54
2023-03-05T20:29:44.333Z,10.48
2023-03-05T20:32:15.395Z,10.43
2023-03-05T20:34:46.651Z,10.42
2023-03-05T20:37:21.968Z,10.43
2023-03-05T20:39:52.825Z,10.45
2023-03-05T20:42:23.644Z,10.48
2023-03-05T20:44:54.075Z,10.51
2023-03-05T20:47:46.000Z,10.51
2023-03-05T20:50:17.205Z,10.50
2023-03-05T20:52:47.510Z,10.48
2023-03-05T20:55:18.516Z,10.43
2023-03-05T20:57:48.892Z,10.39
2023-03-05T21:00:20.829Z,10.36
2023-03-05T21:02:54.300Z,10.31
2023-03-05T21:05:27.362Z,10.30
2023-03-05T21:07:59.227Z,10.27
2023-03-05T21:10:33.129Z,10.26
2023-03-05T21:13:03.379Z,10.25
2023-03-05T21:15:33.661Z,10.23
2023-03-05T21:18:04.095Z,10.23
2023-03-05T21:20:34.989Z,10.24
2023-03-05T21:23:06.042Z,10.26
2023-03-05T21:25:37.720Z,10.30
2023-03-05T21:28:10.039Z,10.34
2023-03-05T21:30:43.365Z,10.38
2023-03-05T21:33:16.526Z,10.40
2023-03-05T21:35:47.708Z,10.43
2023-03-05T21:38:18.644Z,10.44
2023-03-05T21:40:50.290Z,10.43
2023-03-05T21:43:22.546Z,10.43
2023-03-05T21:45:54.585Z,10.41
2023-03-05T21:48:25.968Z,10.37
2023-03-05T21:50:57.162Z,10.35
2023-03-05T21:53:27.544Z,10.32
2023-03-05T21:56:25.045Z,10.30
2023-03-05T21:58:55.643Z,10.22
2023-03-05T22:01:25.885Z,10.20
2023-03-05T22:03:56.216Z,10.20
2023-03-05T22:06:26.920Z,10.19
2023-03-05T22:08:57.298Z,10.19
2023-03-05T22:11:28.139Z,10.21
2023-03-05T22:13:58.525Z,10.21
2023-03-05T22:16:29.616Z,10.21
2023-03-05T22:18:59.873Z,10.21
2023-03-05T22:21:30.950Z,10.21
2023-03-05T22:24:01.147Z,10.18
2023-03-05T22:26:37.478Z,10.16
2023-03-05T22:29:11.307Z,10.14
2023-03-05T22:31:42.004Z,10.11
2023-03-05T22:34:13.867Z,10.10
2023-03-05T22:36:44.080Z,10.07
2023-03-05T22:39:14.341Z,9.97
2023-03-05T22:41:45.706Z,9.92
2023-03-05T22:44:16.370Z,9.93
2023-03-05T22:46:46.682Z,9.98
2023-03-05T22:49:17.751Z,10.04
2023-03-05T22:51:48.728Z,10.06
2023-03-05T22:54:18.920Z,10.04
2023-03-05T22:56:49.498Z,10.04
2023-03-05T22:59:19.960Z,10.02
2023-03-05T23:01:50.384Z,9.99
2023-03-05T23:04:49.012Z,9.97
2023-03-05T23:07:22.081Z,9.93
2023-03-05T23:09:57.250Z,9.92
2023-03-05T23:12:30.545Z,9.89
2023-03-05T23:15:02.369Z,9.88
2023-03-05T23:17:33.003Z,9.92
2023-03-05T23:20:05.379Z,9.96
2023-03-05T23:22:36.094Z,10.04
2023-03-05T23:25:08.827Z,10.09
2023-03-05T23:27:39.345Z,10.15
2023-03-05T23:30:19.172Z,10.20
2023-03-05T23:32:52.379Z,10.23
2023-03-05T23:35:24.630Z,10.24
2023-03-05T23:37:56.121Z,10.24
2023-03-05T23:40:28.446Z,10.15
2023-03-05T23:42:59.265Z,10.10
2023-03-05T23:45:30.659Z,10.07
2023-03-05T23:48:01.366Z,10.04
2023-03-05T23:50:34.069Z,10.04
2023-03-05T23:53:04.945Z,10.06
2023-03-05T23:55:37.044Z,10.07
2023-03-05T23:58:07.642Z,10.10
